Terminal Aerodrome Forecast
Issued by NWS Chicago, IL

Home | Current Version | Previous Version | Text Only | Print | Product List | Glossary On
Versions: 1 2 3 4 5 6 7 8 9 10 11 12 13 14 15 16 17 18 19 20 21 22 23 24 25 26 27 28 29 30 31
000
FTUS43 KLOT 300529
TAFRFD
TAF
KRFD 300529Z 3006/3106 07015G23KT 6SM -SHRA BR OVC040
     FM300900 07017G25KT 4SM -SHRA BR BKN012
     FM301200 08018G25KT 3SM -SHRA BR BKN007 OVC010
      TEMPO 3016/3018 2SM -TSRA BKN005 OVC020CB
     FM302000 04012G18KT 3SM -SHRA BR OVC007
     FM310100 01012KT 2SM -DZ OVC005=

USA.gov is the U.S. government's official web portal to all federal, state and local government web resources and services.